sensor_id;sensor_type;location;lat;lon;timestamp;pressure;altitude;pressure_sealevel;temperature;humidity
45345;BME280;31078;48.304;11.896;2023-01-27T00:00:15;96307.19;;;-1.60;100.00
45345;BME280;31078;48.304;11.896;2023-01-27T00:02:43;96301.69;;;-1.53;100.00
45345;BME280;31078;48.304;11.896;2023-01-27T00:05:11;96305.09;;;-1.41;100.00
45345;BME280;31078;48.304;11.896;2023-01-27T00:07:38;96296.66;;;-1.33;100.00
45345;BME280;31078;48.304;11.896;2023-01-27T00:10:12;96294.16;;;-1.39;100.00
45345;BME280;31078;48.304;11.896;2023-01-27T00:12:40;96305.09;;;-1.41;100.00
45345;BME280;31078;48.304;11.896;2023-01-27T00:15:25;96308.31;;;-1.55;100.00
45345;BME280;31078;48.304;11.896;2023-01-27T00:17:52;96301.22;;;-1.50;100.00
45345;BME280;31078;48.304;11.896;2023-01-27T00:20:18;96304.69;;;-1.33;100.00
45345;BME280;31078;48.304;11.896;2023-01-27T00:23:13;96313.66;;;-1.39;100.00
45345;BME280;31078;48.304;11.896;2023-01-27T00:25:59;96307.78;;;-1.41;100.00
45345;BME280;31078;48.304;11.896;2023-01-27T00:28:30;96297.94;;;-1.52;100.00
45345;BME280;31078;48.304;11.896;2023-01-27T00:30:57;96299.44;;;-1.61;100.00
45345;BME280;31078;48.304;11.896;2023-01-27T00:33:24;96300.53;;;-1.57;100.00
45345;BME280;31078;48.304;11.896;2023-01-27T00:35:55;96294.56;;;-1.64;100.00
45345;BME280;31078;48.304;11.896;2023-01-27T00:38:23;96293.75;;;-1.81;100.00
45345;BME280;31078;48.304;11.896;2023-01-27T00:40:49;96289.31;;;-1.59;100.00
45345;BME280;31078;48.304;11.896;2023-01-27T00:43:31;96281.44;;;-1.49;100.00
45345;BME280;31078;48.304;11.896;2023-01-27T00:45:57;96292.59;;;-1.52;100.00
45345;BME280;31078;48.304;11.896;2023-01-27T00:48:24;96293.75;;;-1.48;100.00
45345;BME280;31078;48.304;11.896;2023-01-27T00:50:51;96292.84;;;-1.37;100.00
45345;BME280;31078;48.304;11.896;2023-01-27T00:53:17;96296.34;;;-1.36;100.00
45345;BME280;31078;48.304;11.896;2023-01-27T00:55:43;96298.63;;;-1.62;100.00
45345;BME280;31078;48.304;11.896;2023-01-27T00:58:11;96292.78;;;-1.59;100.00
45345;BME280;31078;48.304;11.896;2023-01-27T01:00:39;96308.63;;;-1.52;100.00
45345;BME280;31078;48.304;11.896;2023-01-27T01:03:05;96311.38;;;-1.47;100.00
45345;BME280;31078;48.304;11.896;2023-01-27T01:05:32;96293.59;;;-1.58;100.00
45345;BME280;31078;48.304;11.896;2023-01-27T01:07:58;96301.84;;;-1.60;100.00
45345;BME280;31078;48.304;11.896;2023-01-27T01:10:25;96310.28;;;-1.51;100.00
45345;BME280;31078;48.304;11.896;2023-01-27T01:12:51;96309.69;;;-1.53;100.00
45345;BME280;31078;48.304;11.896;2023-01-27T01:15:18;96313.84;;;-1.45;100.00
45345;BME280;31078;48.304;11.896;2023-01-27T01:17:45;96309.31;;;-1.45;100.00
45345;BME280;31078;48.304;11.896;2023-01-27T01:20:12;96309.13;;;-1.55;100.00
45345;BME280;31078;48.304;11.896;2023-01-27T01:22:38;96312.09;;;-1.51;100.00
45345;BME280;31078;48.304;11.896;2023-01-27T01:25:05;96307.44;;;-1.61;100.00
45345;BME280;31078;48.304;11.896;2023-01-27T01:27:33;96308.00;;;-1.59;100.00
45345;BME280;31078;48.304;11.896;2023-01-27T01:29:59;96303.28;;;-1.52;100.00
45345;BME280;31078;48.304;11.896;2023-01-27T01:32:26;96303.78;;;-1.55;100.00
45345;BME280;31078;48.304;11.896;2023-01-27T01:34:54;96316.25;;;-1.61;100.00
45345;BME280;31078;48.304;11.896;2023-01-27T01:37:20;96318.19;;;-1.56;100.00
45345;BME280;31078;48.304;11.896;2023-01-27T01:39:46;96316.97;;;-1.48;100.00
45345;BME280;31078;48.304;11.896;2023-01-27T01:42:13;96325.31;;;-1.45;100.00
45345;BME280;31078;48.304;11.896;2023-01-27T01:44:42;96313.50;;;-1.49;100.00
45345;BME280;31078;48.304;11.896;2023-01-27T01:47:14;96305.09;;;-1.41;100.00
45345;BME280;31078;48.304;11.896;2023-01-27T01:49:40;96308.56;;;-1.40;100.00
45345;BME280;31078;48.304;11.896;2023-01-27T01:52:10;96309.94;;;-1.38;100.00
45345;BME280;31078;48.304;11.896;2023-01-27T01:54:41;96299.91;;;-1.30;100.00
45345;BME280;31078;48.304;11.896;2023-01-27T01:57:11;96312.34;;;-1.36;100.00
45345;BME280;31078;48.304;11.896;2023-01-27T01:59:43;96302.59;;;-1.30;100.00
45345;BME280;31078;48.304;11.896;2023-01-27T02:02:14;96302.63;;;-1.25;100.00
45345;BME280;31078;48.304;11.896;2023-01-27T02:04:46;96290.91;;;-1.24;100.00
45345;BME280;31078;48.304;11.896;2023-01-27T02:07:17;96291.00;;;-1.19;100.00
45345;BME280;31078;48.304;11.896;2023-01-27T02:09:45;96295.53;;;-1.20;100.00
45345;BME280;31078;48.304;11.896;2023-01-27T02:12:12;96293.09;;;-1.21;99.94
45345;BME280;31078;48.304;11.896;2023-01-27T02:14:40;96283.72;;;-1.24;99.63
45345;BME280;31078;48.304;11.896;2023-01-27T02:17:07;96289.69;;;-1.17;99.72
45345;BME280;31078;48.304;11.896;2023-01-27T02:19:40;96291.94;;;-1.25;99.30
45345;BME280;31078;48.304;11.896;2023-01-27T02:22:17;96292.78;;;-1.25;99.21
45345;BME280;31078;48.304;11.896;2023-01-27T02:24:49;96293.41;;;-1.18;99.08
45345;BME280;31078;48.304;11.896;2023-01-27T02:27:22;96285.66;;;-1.19;98.77
45345;BME280;31078;48.304;11.896;2023-01-27T02:29:48;96278.88;;;-1.44;98.50
45345;BME280;31078;48.304;11.896;2023-01-27T02:32:22;96289.38;;;-1.37;99.00
45345;BME280;31078;48.304;11.896;2023-01-27T02:34:49;96290.34;;;-1.26;98.95
45345;BME280;31078;48.304;11.896;2023-01-27T02:37:16;96299.75;;;-1.24;98.62
45345;BME280;31078;48.304;11.896;2023-01-27T02:39:44;96290.84;;;-1.29;98.39
45345;BME280;31078;48.304;11.896;2023-01-27T02:42:13;96286.13;;;-1.22;98.48
45345;BME280;31078;48.304;11.896;2023-01-27T02:44:42;96284.84;;;-1.20;98.41
45345;BME280;31078;48.304;11.896;2023-01-27T02:47:08;96290.34;;;-1.26;98.41
45345;BME280;31078;48.304;11.896;2023-01-27T02:49:35;96285.34;;;-1.40;98.60
45345;BME280;31078;48.304;11.896;2023-01-27T02:52:02;96283.88;;;-1.30;98.96
45345;BME280;31078;48.304;11.896;2023-01-27T02:54:29;96285.81;;;-1.43;98.95
45345;BME280;31078;48.304;11.896;2023-01-27T02:56:55;96289.38;;;-1.71;100.00
45345;BME280;31078;48.304;11.896;2023-01-27T02:59:22;96290.69;;;-1.56;100.00
45345;BME280;31078;48.304;11.896;2023-01-27T03:01:50;96286.63;;;-1.59;100.00
45345;BME280;31078;48.304;11.896;2023-01-27T03:04:16;96285.03;;;-1.60;100.00
45345;BME280;31078;48.304;11.896;2023-01-27T03:06:42;96290.53;;;-1.50;100.00
45345;BME280;31078;48.304;11.896;2023-01-27T03:09:09;96287.06;;;-1.50;99.84
45345;BME280;31078;48.304;11.896;2023-01-27T03:11:35;96294.63;;;-1.59;100.00
45345;BME280;31078;48.304;11.896;2023-01-27T03:14:20;96285.66;;;-1.53;100.00
45345;BME280;31078;48.304;11.896;2023-01-27T03:16:46;96278.53;;;-1.47;100.00
45345;BME280;31078;48.304;11.896;2023-01-27T03:19:32;96284.28;;;-1.39;99.90
45345;BME280;31078;48.304;11.896;2023-01-27T03:21:58;96274.66;;;-1.40;99.96
45345;BME280;31078;48.304;11.896;2023-01-27T03:24:26;96271.59;;;-1.48;100.00
45345;BME280;31078;48.304;11.896;2023-01-27T03:26:52;96273.03;;;-1.41;100.00
45345;BME280;31078;48.304;11.896;2023-01-27T03:29:18;96267.38;;;-1.44;100.00
45345;BME280;31078;48.304;11.896;2023-01-27T03:32:14;96268.19;;;-1.44;100.00
45345;BME280;31078;48.304;11.896;2023-01-27T03:34:42;96272.72;;;-1.44;100.00
45345;BME280;31078;48.304;11.896;2023-01-27T03:37:08;96271.41;;;-1.42;100.00
45345;BME280;31078;48.304;11.896;2023-01-27T03:39:52;96275.88;;;-1.47;100.00
45345;BME280;31078;48.304;11.896;2023-01-27T03:42:36;96274.06;;;-1.42;100.00
45345;BME280;31078;48.304;11.896;2023-01-27T03:45:21;96276.44;;;-1.45;100.00
45345;BME280;31078;48.304;11.896;2023-01-27T03:48:05;96278.69;;;-1.54;100.00
45345;BME280;31078;48.304;11.896;2023-01-27T03:50:33;96286.00;;;-1.49;100.00
45345;BME280;31078;48.304;11.896;2023-01-27T03:53:02;96275.31;;;-1.49;100.00
45345;BME280;31078;48.304;11.896;2023-01-27T03:55:29;96277.16;;;-1.50;100.00
45345;BME280;31078;48.304;11.896;2023-01-27T03:57:55;96275.88;;;-1.47;100.00
45345;BME280;31078;48.304;11.896;2023-01-27T04:00:30;96282.09;;;-1.42;100.00
45345;BME280;31078;48.304;11.896;2023-01-27T04:02:56;96269.63;;;-1.36;100.00
45345;BME280;31078;48.304;11.896;2023-01-27T04:05:42;96274.16;;;-1.37;100.00
45345;BME280;31078;48.304;11.896;2023-01-27T04:08:26;96270.47;;;-1.36;100.00
45345;BME280;31078;48.304;11.896;2023-01-27T04:10:53;96274.47;;;-1.33;100.00
45345;BME280;31078;48.304;11.896;2023-01-27T04:13:33;96276.44;;;-1.28;100.00
45345;BME280;31078;48.304;11.896;2023-01-27T04:16:00;96277.88;;;-1.21;100.00
45345;BME280;31078;48.304;11.896;2023-01-27T04:18:26;96278.03;;;-1.27;99.88
45345;BME280;31078;48.304;11.896;2023-01-27T04:20:54;96283.19;;;-1.21;99.94
45345;BME280;31078;48.304;11.896;2023-01-27T04:23:20;96284.34;;;-1.17;99.78
45345;BME280;31078;48.304;11.896;2023-01-27T04:25:47;96277.31;;;-1.23;99.62
45345;BME280;31078;48.304;11.896;2023-01-27T04:28:14;96274.81;;;-1.29;100.00
45345;BME280;31078;48.304;11.896;2023-01-27T04:30:41;96275.19;;;-1.21;100.00
45345;BME280;31078;48.304;11.896;2023-01-27T04:33:07;96269.63;;;-1.19;99.78
45345;BME280;31078;48.304;11.896;2023-01-27T04:35:34;96281.91;;;-1.18;99.85
45345;BME280;31078;48.304;11.896;2023-01-27T04:38:02;96282.25;;;-1.15;99.60
45345;BME280;31078;48.304;11.896;2023-01-27T04:40:29;96286.53;;;-1.14;99.70
45345;BME280;31078;48.304;11.896;2023-01-27T04:42:55;96286.47;;;-1.19;99.50
45345;BME280;31078;48.304;11.896;2023-01-27T04:45:22;96277.56;;;-1.24;99.85
45345;BME280;31078;48.304;11.896;2023-01-27T04:47:48;96277.31;;;-1.23;100.00
45345;BME280;31078;48.304;11.896;2023-01-27T04:50:15;96277.50;;;-1.29;99.66
45345;BME280;31078;48.304;11.896;2023-01-27T04:52:42;96281.69;;;-1.34;99.85
45345;BME280;31078;48.304;11.896;2023-01-27T04:55:10;96280.81;;;-1.39;99.95
45345;BME280;31078;48.304;11.896;2023-01-27T04:57:37;96279.50;;;-1.37;100.00
45345;BME280;31078;48.304;11.896;2023-01-27T05:00:04;96277.50;;;-1.29;100.00
45345;BME280;31078;48.304;11.896;2023-01-27T05:02:31;96275.28;;;-1.33;100.00
45345;BME280;31078;48.304;11.896;2023-01-27T05:04:57;96279.81;;;-1.33;100.00
45345;BME280;31078;48.304;11.896;2023-01-27T05:07:28;96279.81;;;-1.33;100.00
45345;BME280;31078;48.304;11.896;2023-01-27T05:09:55;96280.63;;;-1.33;100.00
45345;BME280;31078;48.304;11.896;2023-01-27T05:12:23;96298.69;;;-1.40;100.00
45345;BME280;31078;48.304;11.896;2023-01-27T05:14:49;96291.31;;;-1.33;100.00
45345;BME280;31078;48.304;11.896;2023-01-27T05:17:16;96295.03;;;-1.34;99.96
45345;BME280;31078;48.304;11.896;2023-01-27T05:19:42;96290.75;;;-1.35;100.00
45345;BME280;31078;48.304;11.896;2023-01-27T05:22:08;96296.25;;;-1.41;100.00
45345;BME280;31078;48.304;11.896;2023-01-27T05:24:36;96291.81;;;-1.36;100.00
45345;BME280;31078;48.304;11.896;2023-01-27T05:27:03;96293.34;;;-1.40;100.00
45345;BME280;31078;48.304;11.896;2023-01-27T05:29:31;96306.22;;;-1.37;100.00
45345;BME280;31078;48.304;11.896;2023-01-27T05:31:58;96302.34;;;-1.29;100.00
45345;BME280;31078;48.304;11.896;2023-01-27T05:34:25;96304.28;;;-1.24;100.00
45345;BME280;31078;48.304;11.896;2023-01-27T05:36:51;96300.69;;;-1.13;100.00
45345;BME280;31078;48.304;11.896;2023-01-27T05:39:18;96316.81;;;-1.08;100.00
45345;BME280;31078;48.304;11.896;2023-01-27T05:41:44;96318.50;;;-1.02;99.91
45345;BME280;31078;48.304;11.896;2023-01-27T05:44:11;96315.56;;;-1.00;99.82
45345;BME280;31078;48.304;11.896;2023-01-27T05:46:40;96322.03;;;-0.96;99.59
45345;BME280;31078;48.304;11.896;2023-01-27T05:49:06;96323.19;;;-0.92;99.69
45345;BME280;31078;48.304;11.896;2023-01-27T05:51:36;96324.78;;;-0.91;99.58
45345;BME280;31078;48.304;11.896;2023-01-27T05:54:04;96321.31;;;-0.92;99.34
45345;BME280;31078;48.304;11.896;2023-01-27T05:56:31;96327.41;;;-0.96;99.38
45345;BME280;31078;48.304;11.896;2023-01-27T05:58:58;96331.47;;;-0.94;99.24
45345;BME280;31078;48.304;11.896;2023-01-27T06:01:26;96326.41;;;-0.90;99.29
45345;BME280;31078;48.304;11.896;2023-01-27T06:03:54;96335.88;;;-0.83;99.05
45345;BME280;31078;48.304;11.896;2023-01-27T06:06:22;96339.13;;;-0.81;98.73
45345;BME280;31078;48.304;11.896;2023-01-27T06:08:49;96338.56;;;-0.83;98.25
45345;BME280;31078;48.304;11.896;2023-01-27T06:11:17;96339.66;;;-0.79;98.38
45345;BME280;31078;48.304;11.896;2023-01-27T06:13:45;96334.69;;;-0.92;98.21
45345;BME280;31078;48.304;11.896;2023-01-27T06:16:14;96335.66;;;-0.98;98.35
45345;BME280;31078;48.304;11.896;2023-01-27T06:18:42;96338.41;;;-0.93;98.63
45345;BME280;31078;48.304;11.896;2023-01-27T06:21:11;96348.84;;;-0.91;98.59
45345;BME280;31078;48.304;11.896;2023-01-27T06:23:39;96352.34;;;-0.91;98.67
45345;BME280;31078;48.304;11.896;2023-01-27T06:26:08;96353.47;;;-0.87;98.29
45345;BME280;31078;48.304;11.896;2023-01-27T06:28:35;96355.16;;;-0.81;98.30
45345;BME280;31078;48.304;11.896;2023-01-27T06:31:05;96351.19;;;-0.95;98.03
45345;BME280;31078;48.304;11.896;2023-01-27T06:33:32;96362.88;;;-1.01;98.29
45345;BME280;31078;48.304;11.896;2023-01-27T06:36:00;96364.47;;;-1.00;98.48
45345;BME280;31078;48.304;11.896;2023-01-27T06:38:29;96361.97;;;-0.90;98.17
45345;BME280;31078;48.304;11.896;2023-01-27T06:40:55;96354.75;;;-0.89;97.96
45345;BME280;31078;48.304;11.896;2023-01-27T06:43:22;96362.28;;;-0.86;97.88
45345;BME280;31078;48.304;11.896;2023-01-27T06:45:49;96359.06;;;-0.88;97.67
45345;BME280;31078;48.304;11.896;2023-01-27T06:48:15;96368.03;;;-0.77;97.42
45345;BME280;31078;48.304;11.896;2023-01-27T06:50:42;96363.44;;;-0.82;97.37
45345;BME280;31078;48.304;11.896;2023-01-27T06:53:08;96366.97;;;-0.76;96.80
45345;BME280;31078;48.304;11.896;2023-01-27T06:55:36;96371.81;;;-0.73;96.72
45345;BME280;31078;48.304;11.896;2023-01-27T06:58:06;96371.41;;;-0.65;96.46
45345;BME280;31078;48.304;11.896;2023-01-27T07:00:32;96366.41;;;-0.62;96.24
45345;BME280;31078;48.304;11.896;2023-01-27T07:02:59;96365.06;;;-0.59;96.16
45345;BME280;31078;48.304;11.896;2023-01-27T07:05:25;96353.91;;;-0.56;96.02
45345;BME280;31078;48.304;11.896;2023-01-27T07:07:52;96357.13;;;-0.54;95.75
45345;BME280;31078;48.304;11.896;2023-01-27T07:10:18;96360.38;;;-0.52;95.63
45345;BME280;31078;48.304;11.896;2023-01-27T07:12:46;96366.53;;;-0.51;95.45
45345;BME280;31078;48.304;11.896;2023-01-27T07:15:13;96368.81;;;-0.60;95.30
45345;BME280;31078;48.304;11.896;2023-01-27T07:17:39;96364.28;;;-0.60;95.13
45345;BME280;31078;48.304;11.896;2023-01-27T07:20:07;96361.78;;;-0.66;95.28
45345;BME280;31078;48.304;11.896;2023-01-27T07:22:34;96359.91;;;-0.66;95.21
45345;BME280;31078;48.304;11.896;2023-01-27T07:25:01;96362.59;;;-0.66;95.19
45345;BME280;31078;48.304;11.896;2023-01-27T07:27:27;96364.75;;;-0.63;94.94
45345;BME280;31078;48.304;11.896;2023-01-27T07:29:55;96364.75;;;-0.63;94.94
45345;BME280;31078;48.304;11.896;2023-01-27T07:32:22;96360.88;;;-0.55;95.18
45345;BME280;31078;48.304;11.896;2023-01-27T07:34:48;96360.88;;;-0.55;95.17
45345;BME280;31078;48.304;11.896;2023-01-27T07:37:15;96357.63;;;-0.57;95.34
45345;BME280;31078;48.304;11.896;2023-01-27T07:39:41;96367.69;;;-0.64;95.30
45345;BME280;31078;48.304;11.896;2023-01-27T07:42:08;96361.78;;;-0.66;95.28
45345;BME280;31078;48.304;11.896;2023-01-27T07:44:35;96365.94;;;-0.75;95.49
45345;BME280;31078;48.304;11.896;2023-01-27T07:47:02;96373.53;;;-0.67;95.61
45345;BME280;31078;48.304;11.896;2023-01-27T07:49:29;96372.56;;;-0.61;94.50
45345;BME280;31078;48.304;11.896;2023-01-27T07:51:56;96365.06;;;-0.59;94.47
45345;BME280;31078;48.304;11.896;2023-01-27T07:54:22;96370.94;;;-0.62;94.47
45345;BME280;31078;48.304;11.896;2023-01-27T07:56:49;96377.38;;;-0.58;94.54
45345;BME280;31078;48.304;11.896;2023-01-27T07:59:15;96379.09;;;-0.52;94.34
45345;BME280;31078;48.304;11.896;2023-01-27T08:01:42;96373.50;;;-0.50;94.05
45345;BME280;31078;48.304;11.896;2023-01-27T08:04:10;96375.91;;;-0.49;94.09
45345;BME280;31078;48.304;11.896;2023-01-27T08:06:37;96377.53;;;-0.48;93.81
45345;BME280;31078;48.304;11.896;2023-01-27T08:09:04;96381.34;;;-0.44;93.65
45345;BME280;31078;48.304;11.896;2023-01-27T08:11:30;96391.16;;;-0.49;93.27
45345;BME280;31078;48.304;11.896;2023-01-27T08:13:57;96391.47;;;-0.46;92.97
45345;BME280;31078;48.304;11.896;2023-01-27T08:16:23;96388.16;;;-0.53;92.25
45345;BME280;31078;48.304;11.896;2023-01-27T08:18:51;96404.13;;;-0.58;92.33
45345;BME280;31078;48.304;11.896;2023-01-27T08:21:19;96406.72;;;-0.46;91.84
45345;BME280;31078;48.304;11.896;2023-01-27T08:23:46;96399.72;;;-0.47;91.64
45345;BME280;31078;48.304;11.896;2023-01-27T08:26:13;96394.50;;;-0.59;91.55
45345;BME280;31078;48.304;11.896;2023-01-27T08:28:39;96390.28;;;-0.55;91.60
45345;BME280;31078;48.304;11.896;2023-01-27T08:31:07;96396.19;;;-0.53;91.51
45345;BME280;31078;48.304;11.896;2023-01-27T08:33:34;96394.09;;;-0.51;91.63
45345;BME280;31078;48.304;11.896;2023-01-27T08:36:03;96405.41;;;-0.44;91.55
45345;BME280;31078;48.304;11.896;2023-01-27T08:38:32;96403.94;;;-0.35;91.23
45345;BME280;31078;48.304;11.896;2023-01-27T08:41:03;96408.56;;;-0.30;91.10
45345;BME280;31078;48.304;11.896;2023-01-27T08:43:29;96409.09;;;-0.28;91.24
45345;BME280;31078;48.304;11.896;2023-01-27T08:45:56;96411.03;;;-0.23;91.10
45345;BME280;31078;48.304;11.896;2023-01-27T08:48:24;96400.94;;;-0.16;90.99
45345;BME280;31078;48.304;11.896;2023-01-27T08:50:51;96407.44;;;-0.12;90.42
45345;BME280;31078;48.304;11.896;2023-01-27T08:53:17;96405.50;;;-0.17;90.63
45345;BME280;31078;48.304;11.896;2023-01-27T08:55:46;96404.75;;;-0.12;90.64
45345;BME280;31078;48.304;11.896;2023-01-27T08:58:13;96406.38;;;-0.11;90.20
45345;BME280;31078;48.304;11.896;2023-01-27T09:00:40;96410.56;;;-0.20;89.79
45345;BME280;31078;48.304;11.896;2023-01-27T09:03:06;96406.31;;;-0.16;89.84
45345;BME280;31078;48.304;11.896;2023-01-27T09:05:34;96419.69;;;-0.16;89.64
45345;BME280;31078;48.304;11.896;2023-01-27T09:08:01;96424.47;;;-0.18;89.69
45345;BME280;31078;48.304;11.896;2023-01-27T09:10:28;96422.13;;;-0.15;89.82
45345;BME280;31078;48.304;11.896;2023-01-27T09:12:57;96424.00;;;-0.15;90.19
45345;BME280;31078;48.304;11.896;2023-01-27T09:15:23;96428.50;;;-0.16;89.75
45345;BME280;31078;48.304;11.896;2023-01-27T09:17:50;96420.69;;;-0.22;90.37
45345;BME280;31078;48.304;11.896;2023-01-27T09:20:16;96427.47;;;-0.15;90.17
45345;BME280;31078;48.304;11.896;2023-01-27T09:22:43;96420.59;;;-0.28;89.81
45345;BME280;31078;48.304;11.896;2023-01-27T09:25:14;96432.78;;;-0.20;89.16
45345;BME280;31078;48.304;11.896;2023-01-27T09:27:41;96424.06;;;-0.10;89.13
45345;BME280;31078;48.304;11.896;2023-01-27T09:30:10;96429.69;;;-0.29;89.13
45345;BME280;31078;48.304;11.896;2023-01-27T09:32:37;96434.72;;;-0.15;88.99
45345;BME280;31078;48.304;11.896;2023-01-27T09:35:04;96435.75;;;-0.16;89.27
45345;BME280;31078;48.304;11.896;2023-01-27T09:37:34;96433.06;;;-0.16;90.08
45345;BME280;31078;48.304;11.896;2023-01-27T09:40:11;96433.88;;;-0.16;90.27
45345;BME280;31078;48.304;11.896;2023-01-27T09:42:55;96441.16;;;-0.11;90.30
45345;BME280;31078;48.304;11.896;2023-01-27T09:45:38;96432.25;;;-0.17;89.70
45345;BME280;31078;48.304;11.896;2023-01-27T09:48:21;96434.44;;;-0.36;92.01
45345;BME280;31078;48.304;11.896;2023-01-27T09:50:54;96431.81;;;-0.31;92.21
45345;BME280;31078;48.304;11.896;2023-01-27T09:53:47;96439.41;;;-0.22;91.74
45345;BME280;31078;48.304;11.896;2023-01-27T09:56:21;96436.19;;;-0.24;91.45
45345;BME280;31078;48.304;11.896;2023-01-27T09:59:04;96440.63;;;-0.13;91.12
45345;BME280;31078;48.304;11.896;2023-01-27T10:01:47;96448.44;;;-0.07;90.82
45345;BME280;31078;48.304;11.896;2023-01-27T10:04:29;96441.94;;;0.06;90.35
45345;BME280;31078;48.304;11.896;2023-01-27T10:07:11;96434.78;;;0.12;89.89
45345;BME280;31078;48.304;11.896;2023-01-27T10:10:02;96442.06;;;0.16;89.47
45345;BME280;31078;48.304;11.896;2023-01-27T10:12:46;96447.22;;;0.23;88.90
45345;BME280;31078;48.304;11.896;2023-01-27T10:15:31;96437.63;;;0.27;87.98
45345;BME280;31078;48.304;11.896;2023-01-27T10:18:13;96448.63;;;0.31;87.91
45345;BME280;31078;48.304;11.896;2023-01-27T10:20:48;96448.50;;;0.20;87.95
45345;BME280;31078;48.304;11.896;2023-01-27T10:23:32;96446.97;;;0.24;87.82
45345;BME280;31078;48.304;11.896;2023-01-27T10:26:08;96452.38;;;0.30;87.89
45345;BME280;31078;48.304;11.896;2023-01-27T10:28:43;96460.47;;;0.35;88.08
45345;BME280;31078;48.304;11.896;2023-01-27T10:31:16;96449.03;;;0.17;87.75
45345;BME280;31078;48.304;11.896;2023-01-27T10:33:50;96448.22;;;0.17;87.95
45345;BME280;31078;48.304;11.896;2023-01-27T10:36:24;96442.63;;;0.18;87.81
45345;BME280;31078;48.304;11.896;2023-01-27T10:39:02;96448.72;;;0.14;88.04
45345;BME280;31078;48.304;11.896;2023-01-27T10:41:42;96452.13;;;0.09;88.26
45345;BME280;31078;48.304;11.896;2023-01-27T10:44:28;96449.84;;;0.18;88.22
45345;BME280;31078;48.304;11.896;2023-01-27T10:47:06;96448.97;;;0.12;88.09
45345;BME280;31078;48.304;11.896;2023-01-27T10:49:39;96446.63;;;0.16;88.12
45345;BME280;31078;48.304;11.896;2023-01-27T10:52:10;96442.75;;;0.07;88.22
45345;BME280;31078;48.304;11.896;2023-01-27T10:54:41;96441.94;;;0.06;88.24
45345;BME280;31078;48.304;11.896;2023-01-27T10:57:14;96441.63;;;0.03;88.73
45345;BME280;31078;48.304;11.896;2023-01-27T10:59:47;96445.66;;;0.05;89.17
45345;BME280;31078;48.304;11.896;2023-01-27T11:02:20;96446.28;;;0.12;89.31
45345;BME280;31078;48.304;11.896;2023-01-27T11:04:54;96444.00;;;0.21;89.49
45345;BME280;31078;48.304;11.896;2023-01-27T11:07:23;96447.91;;;0.13;89.39
45345;BME280;31078;48.304;11.896;2023-01-27T11:09:54;96447.97;;;0.18;89.13
45345;BME280;31078;48.304;11.896;2023-01-27T11:12:28;96448.84;;;0.24;89.33
45345;BME280;31078;48.304;11.896;2023-01-27T11:14:55;96449.66;;;0.24;88.83
45345;BME280;31078;48.304;11.896;2023-01-27T11:17:28;96450.78;;;0.29;88.26
45345;BME280;31078;48.304;11.896;2023-01-27T11:20:03;96448.63;;;0.31;88.14
45345;BME280;31078;48.304;11.896;2023-01-27T11:22:35;96442.66;;;0.23;86.83
45345;BME280;31078;48.304;11.896;2023-01-27T11:25:10;96443.00;;;0.27;87.53
45345;BME280;31078;48.304;11.896;2023-01-27T11:27:55;96434.56;;;0.18;88.46
45345;BME280;31078;48.304;11.896;2023-01-27T11:30:31;96438.94;;;0.24;88.07
45345;BME280;31078;48.304;11.896;2023-01-27T11:33:02;96441.34;;;0.26;88.15
45345;BME280;31078;48.304;11.896;2023-01-27T11:35:32;96442.78;;;0.34;87.73
45345;BME280;31078;48.304;11.896;2023-01-27T11:37:59;96427.31;;;0.41;87.40
45345;BME280;31078;48.304;11.896;2023-01-27T11:40:27;96431.66;;;0.42;87.64
45345;BME280;31078;48.304;11.896;2023-01-27T11:42:55;96426.59;;;0.23;88.49
45345;BME280;31078;48.304;11.896;2023-01-27T11:45:24;96429.09;;;0.30;88.09
45345;BME280;31078;48.304;11.896;2023-01-27T11:47:54;96432.63;;;0.36;87.23
45345;BME280;31078;48.304;11.896;2023-01-27T11:50:22;96440.16;;;0.39;87.18
45345;BME280;31078;48.304;11.896;2023-01-27T11:52:57;96433.25;;;0.43;86.78
45345;BME280;31078;48.304;11.896;2023-01-27T11:55:27;96434.06;;;0.43;86.35
45345;BME280;31078;48.304;11.896;2023-01-27T11:58:01;96430.13;;;0.51;86.03
45345;BME280;31078;48.304;11.896;2023-01-27T12:00:37;96427.44;;;0.51;85.94
45345;BME280;31078;48.304;11.896;2023-01-27T12:03:15;96423.19;;;0.55;86.07
45345;BME280;31078;48.304;11.896;2023-01-27T12:05:45;96420.81;;;0.59;85.97
45345;BME280;31078;48.304;11.896;2023-01-27T12:08:34;96422.28;;;0.71;85.93
45345;BME280;31078;48.304;11.896;2023-01-27T12:11:16;96423.84;;;0.67;85.75
45345;BME280;31078;48.304;11.896;2023-01-27T12:13:47;96424.63;;;0.63;85.67
45345;BME280;31078;48.304;11.896;2023-01-27T12:16:14;96415.31;;;0.70;85.78
45345;BME280;31078;48.304;11.896;2023-01-27T12:18:48;96426.63;;;0.77;85.65
45345;BME280;31078;48.304;11.896;2023-01-27T12:21:16;96422.38;;;0.82;85.19
45345;BME280;31078;48.304;11.896;2023-01-27T12:23:50;96417.50;;;0.73;84.94
45345;BME280;31078;48.304;11.896;2023-01-27T12:26:32;96416.31;;;0.64;85.61
45345;BME280;31078;48.304;11.896;2023-01-27T12:29:04;96413.91;;;0.63;85.11
45345;BME280;31078;48.304;11.896;2023-01-27T12:31:43;96408.19;;;0.54;85.39
45345;BME280;31078;48.304;11.896;2023-01-27T12:34:21;96414.56;;;0.48;85.62
45345;BME280;31078;48.304;11.896;2023-01-27T12:36:50;96407.00;;;0.45;85.76
45345;BME280;31078;48.304;11.896;2023-01-27T12:39:29;96412.91;;;0.42;86.47
45345;BME280;31078;48.304;11.896;2023-01-27T12:41:57;96407.53;;;0.42;86.85
45345;BME280;31078;48.304;11.896;2023-01-27T12:44:23;96405.72;;;0.47;87.16
45345;BME280;31078;48.304;11.896;2023-01-27T12:46:58;96401.44;;;0.51;87.46
45345;BME280;31078;48.304;11.896;2023-01-27T12:49:31;96408.13;;;0.49;87.62
45345;BME280;31078;48.304;11.896;2023-01-27T12:52:01;96404.69;;;0.54;87.26
45345;BME280;31078;48.304;11.896;2023-01-27T12:54:31;96395.84;;;0.53;86.91
45345;BME280;31078;48.304;11.896;2023-01-27T12:57:01;96399.03;;;0.50;86.97
45345;BME280;31078;48.304;11.896;2023-01-27T12:59:28;96399.63;;;0.57;86.59
45345;BME280;31078;48.304;11.896;2023-01-27T13:01:58;96407.00;;;0.72;86.45